createdAt,value
2022-11-13T00:00:40.654Z,1020.44
2022-11-13T00:01:40.630Z,1020.45
2022-11-13T00:02:40.668Z,1020.41
2022-11-13T00:03:40.576Z,1020.39
2022-11-13T00:04:40.558Z,1020.32
2022-11-13T00:05:40.530Z,1020.32
2022-11-13T00:06:40.618Z,1020.32
2022-11-13T00:07:40.476Z,1020.30
2022-11-13T00:08:40.450Z,1020.35
2022-11-13T00:09:40.425Z,1020.30
2022-11-13T00:10:40.397Z,1020.33
2022-11-13T00:11:40.376Z,1020.34
2022-11-13T00:12:40.347Z,1020.33
2022-11-13T00:13:40.323Z,1020.37
2022-11-13T00:14:40.295Z,1020.37
2022-11-13T00:15:40.384Z,1020.34
2022-11-13T00:16:40.245Z,1020.29
2022-11-13T00:17:40.219Z,1020.32
2022-11-13T00:18:40.193Z,1020.30
2022-11-13T00:19:40.169Z,1020.29
2022-11-13T00:20:40.139Z,1020.26
2022-11-13T00:21:40.117Z,1020.27
2022-11-13T00:22:40.089Z,1020.30
2022-11-13T00:23:40.063Z,1020.31
2022-11-13T00:24:40.038Z,1020.29
2022-11-13T00:25:40.018Z,1020.28
2022-11-13T00:26:39.985Z,1020.28
2022-11-13T00:27:39.962Z,1020.23
2022-11-13T00:28:39.934Z,1020.26
2022-11-13T00:29:39.909Z,1020.24
2022-11-13T00:30:39.887Z,1020.27
2022-11-13T00:31:39.972Z,1020.28
2022-11-13T00:32:39.831Z,1020.23
2022-11-13T00:34:14.173Z,1020.19
2022-11-13T00:34:48.424Z,1020.21
2022-11-13T00:35:39.756Z,1020.16
2022-11-13T00:36:39.732Z,1020.15
2022-11-13T00:37:39.703Z,1020.11
2022-11-13T00:38:39.673Z,1020.11
2022-11-13T00:39:39.652Z,1020.14
2022-11-13T00:40:39.624Z,1020.10
2022-11-13T00:41:39.600Z,1020.10
2022-11-13T00:42:39.572Z,1020.04
2022-11-13T00:43:39.548Z,1020.05
2022-11-13T00:44:39.521Z,1020.02
2022-11-13T00:45:39.496Z,1020.03
2022-11-13T00:46:39.465Z,1020.05
2022-11-13T00:47:39.553Z,1020.00
2022-11-13T00:48:39.418Z,1020.08
2022-11-13T00:49:39.394Z,1020.03
2022-11-13T00:50:39.363Z,1020.04
2022-11-13T00:51:39.340Z,1020.06
2022-11-13T00:52:39.311Z,1020.03
2022-11-13T00:53:39.290Z,1020.03
2022-11-13T00:54:39.258Z,1019.98
2022-11-13T00:55:39.236Z,1019.96
2022-11-13T00:56:39.210Z,1020.00
2022-11-13T00:57:39.183Z,1020.00
2022-11-13T00:58:39.153Z,1020.04
2022-11-13T00:59:39.130Z,1019.99
2022-11-13T01:00:39.102Z,1020.01
2022-11-13T01:01:39.150Z,1020.03
2022-11-13T01:02:39.050Z,1019.99
2022-11-13T01:03:39.142Z,1020.01
2022-11-13T01:04:39.000Z,1020.00
2022-11-13T01:05:38.976Z,1020.01
2022-11-13T01:06:39.009Z,1020.01
2022-11-13T01:07:38.922Z,1020.02
2022-11-13T01:08:38.895Z,1020.02
2022-11-13T01:09:38.870Z,1020.00
2022-11-13T01:10:38.843Z,1020.02
2022-11-13T01:11:38.818Z,1020.02
2022-11-13T01:12:38.790Z,1020.02
2022-11-13T01:13:38.763Z,1019.99
2022-11-13T01:14:38.735Z,1020.00
2022-11-13T01:15:39.045Z,1019.98
2022-11-13T01:16:38.687Z,1019.95
2022-11-13T01:17:38.661Z,1019.95
2022-11-13T01:18:38.630Z,1019.97
2022-11-13T01:19:38.718Z,1019.96
2022-11-13T01:20:38.578Z,1019.96
2022-11-13T01:21:38.553Z,1019.96
2022-11-13T01:22:38.525Z,1019.97
2022-11-13T01:23:38.504Z,1019.91
2022-11-13T01:24:38.477Z,1019.90
2022-11-13T01:25:38.449Z,1019.87
2022-11-13T01:26:38.421Z,1019.88
2022-11-13T01:27:38.395Z,1019.88
2022-11-13T01:28:38.369Z,1019.87
2022-11-13T01:29:38.343Z,1019.90
2022-11-13T01:30:38.320Z,1019.88
2022-11-13T01:31:38.298Z,1019.86
2022-11-13T01:32:38.266Z,1019.89
2022-11-13T01:33:38.242Z,1019.90
2022-11-13T01:34:38.213Z,1019.89
2022-11-13T01:35:38.298Z,1019.87
2022-11-13T01:36:38.162Z,1019.85
2022-11-13T01:37:38.135Z,1019.81
2022-11-13T01:38:38.497Z,1019.86
2022-11-13T01:39:38.087Z,1019.84
2022-11-13T01:40:38.052Z,1019.88
2022-11-13T01:41:38.030Z,1019.87
2022-11-13T01:42:38.003Z,1019.85
2022-11-13T01:43:37.974Z,1019.87
2022-11-13T01:44:37.951Z,1019.83
2022-11-13T01:45:37.924Z,1019.88
2022-11-13T01:46:37.895Z,1019.87
2022-11-13T01:47:37.870Z,1019.88
2022-11-13T01:48:37.847Z,1019.89
2022-11-13T01:49:37.817Z,1019.93
2022-11-13T01:50:37.792Z,1019.89
2022-11-13T01:51:37.879Z,1019.92
2022-11-13T01:52:37.737Z,1019.87
2022-11-13T01:53:37.712Z,1019.83
2022-11-13T01:54:37.683Z,1019.84
2022-11-13T01:55:37.660Z,1019.80
2022-11-13T01:56:37.633Z,1019.85
2022-11-13T01:57:37.611Z,1019.82
2022-11-13T01:58:37.581Z,1019.78
2022-11-13T01:59:37.551Z,1019.74
2022-11-13T02:00:37.527Z,1019.76
2022-11-13T02:01:37.587Z,1019.76
2022-11-13T02:02:37.471Z,1019.73
2022-11-13T02:03:37.453Z,1019.69
2022-11-13T02:04:37.422Z,1019.69
2022-11-13T02:05:37.396Z,1019.64
2022-11-13T02:06:37.403Z,1019.67
2022-11-13T02:07:37.455Z,1019.62
2022-11-13T02:08:37.314Z,1019.60
2022-11-13T02:09:37.294Z,1019.65
2022-11-13T02:10:37.259Z,1019.63
2022-11-13T02:11:37.237Z,1019.63
2022-11-13T02:12:37.208Z,1019.62
2022-11-13T02:13:37.184Z,1019.60
2022-11-13T02:14:37.157Z,1019.60
2022-11-13T02:15:37.131Z,1019.53
2022-11-13T02:16:37.103Z,1019.56
2022-11-13T02:17:37.079Z,1019.54
2022-11-13T02:18:37.048Z,1019.54
2022-11-13T02:19:37.025Z,1019.51
2022-11-13T02:20:36.996Z,1019.49
2022-11-13T02:21:36.970Z,1019.47
2022-11-13T02:22:36.943Z,1019.49
2022-11-13T02:23:37.030Z,1019.50
2022-11-13T02:24:38.113Z,1019.45
2022-11-13T02:25:36.868Z,1019.46
2022-11-13T02:26:36.835Z,1019.46
2022-11-13T02:27:36.813Z,1019.46
2022-11-13T02:28:36.791Z,1019.43
2022-11-13T02:29:36.759Z,1019.42
2022-11-13T02:30:36.731Z,1019.42
2022-11-13T02:31:36.705Z,1019.43
2022-11-13T02:32:36.678Z,1019.41
2022-11-13T02:33:36.654Z,1019.39
2022-11-13T02:34:36.624Z,1019.43
2022-11-13T02:35:36.603Z,1019.43
2022-11-13T02:36:36.574Z,1019.41
2022-11-13T02:37:36.550Z,1019.45
2022-11-13T02:38:36.519Z,1019.38
2022-11-13T02:39:36.615Z,1019.36
2022-11-13T02:40:36.468Z,1019.39
2022-11-13T02:41:36.446Z,1019.40
2022-11-13T02:42:36.414Z,1019.35
2022-11-13T02:43:36.392Z,1019.39
2022-11-13T02:44:36.363Z,1019.35
2022-11-13T02:45:36.338Z,1019.31
2022-11-13T02:46:36.310Z,1019.32
2022-11-13T02:47:36.285Z,1019.29
2022-11-13T02:48:36.256Z,1019.25
2022-11-13T02:49:36.232Z,1019.28
2022-11-13T02:50:36.204Z,1019.25
2022-11-13T02:51:36.179Z,1019.23
2022-11-13T02:52:36.194Z,1019.24
2022-11-13T02:53:36.128Z,1019.23
2022-11-13T02:54:36.095Z,1019.23
2022-11-13T02:55:36.185Z,1019.23
2022-11-13T02:56:36.042Z,1019.24
2022-11-13T02:57:36.018Z,1019.20
2022-11-13T02:58:35.987Z,1019.19
2022-11-13T02:59:35.964Z,1019.22
2022-11-13T03:00:35.937Z,1019.19
2022-11-13T03:01:35.956Z,1019.21
2022-11-13T03:02:35.881Z,1019.21
2022-11-13T03:05:05.353Z,1019.21
2022-11-13T03:05:35.806Z,1019.23
2022-11-13T03:06:35.776Z,1019.19
2022-11-13T03:07:35.754Z,1019.14
2022-11-13T03:08:36.642Z,1019.17
2022-11-13T03:09:35.697Z,1019.14
2022-11-13T03:10:35.670Z,1019.16
2022-11-13T03:11:35.761Z,1019.12
2022-11-13T03:12:35.619Z,1019.15
2022-11-13T03:13:35.594Z,1019.17
2022-11-13T03:14:35.564Z,1019.14
2022-11-13T03:15:35.540Z,1019.14
2022-11-13T03:16:35.510Z,1019.12
2022-11-13T03:17:35.490Z,1019.07
2022-11-13T03:18:35.456Z,1019.11
2022-11-13T03:19:35.430Z,1019.08
2022-11-13T03:20:35.406Z,1019.04
2022-11-13T03:21:35.378Z,1019.06
2022-11-13T03:22:35.349Z,1019.04
2022-11-13T03:23:35.323Z,1019.09
2022-11-13T03:24:35.295Z,1019.08
2022-11-13T03:25:35.272Z,1019.06
2022-11-13T03:26:35.242Z,1019.05
2022-11-13T03:27:35.329Z,1019.04
2022-11-13T03:28:35.188Z,1019.04
2022-11-13T03:29:35.163Z,1019.05
2022-11-13T03:30:35.133Z,1019.05
2022-11-13T03:31:35.108Z,1019.05
2022-11-13T03:32:35.078Z,1019.05
2022-11-13T03:33:35.055Z,1019.07
2022-11-13T03:34:35.032Z,1019.06
2022-11-13T03:35:42.955Z,1019.05
2022-11-13T03:36:34.975Z,1019.05
2022-11-13T03:37:34.950Z,1019.04
2022-11-13T03:38:34.921Z,1019.05
2022-11-13T03:39:34.892Z,1019.01
2022-11-13T03:40:34.862Z,1019.01
2022-11-13T03:41:34.837Z,1019.01
2022-11-13T03:42:34.808Z,1019.03
2022-11-13T03:43:34.890Z,1019.02
2022-11-13T03:44:34.756Z,1019.01
2022-11-13T03:45:34.743Z,1018.98
2022-11-13T03:46:34.698Z,1019.03
2022-11-13T03:47:34.673Z,1019.00
2022-11-13T03:48:34.648Z,1018.99
2022-11-13T03:49:34.627Z,1019.01
2022-11-13T03:50:34.592Z,1018.98
2022-11-13T03:51:34.573Z,1019.00
2022-11-13T03:52:34.537Z,1018.99
2022-11-13T03:53:34.510Z,1018.98
2022-11-13T03:54:34.489Z,1018.94
2022-11-13T03:55:34.458Z,1018.95
2022-11-13T03:56:34.433Z,1018.92
2022-11-13T03:57:34.402Z,1018.91
2022-11-13T03:58:38.502Z,1018.85
2022-11-13T03:59:34.463Z,1018.86
2022-11-13T04:00:34.326Z,1018.80
2022-11-13T04:01:34.337Z,1018.81
2022-11-13T04:02:34.271Z,1018.78
2022-11-13T04:03:34.241Z,1018.76
2022-11-13T04:04:34.217Z,1018.73
2022-11-13T04:05:34.191Z,1018.74
2022-11-13T04:06:34.167Z,1018.74
2022-11-13T04:07:34.136Z,1018.77
2022-11-13T04:08:34.112Z,1018.75
2022-11-13T04:09:34.082Z,1018.74
2022-11-13T04:10:34.057Z,1018.74
2022-11-13T04:11:34.025Z,1018.73
2022-11-13T04:12:34.002Z,1018.69
2022-11-13T04:13:33.976Z,1018.69
2022-11-13T04:14:33.947Z,1018.67
2022-11-13T04:15:34.035Z,1018.69
2022-11-13T04:16:33.894Z,1018.69
2022-11-13T04:17:33.870Z,1018.68
2022-11-13T04:18:33.841Z,1018.63
2022-11-13T04:19:33.812Z,1018.64
2022-11-13T04:20:33.787Z,1018.61
2022-11-13T04:21:33.761Z,1018.59
2022-11-13T04:22:33.733Z,1018.61
2022-11-13T04:23:33.706Z,1018.58
2022-11-13T04:24:33.681Z,1018.58
2022-11-13T04:25:33.652Z,1018.57
2022-11-13T04:26:33.628Z,1018.53
2022-11-13T04:27:33.596Z,1018.61
2022-11-13T04:28:33.578Z,1018.59
2022-11-13T04:29:33.546Z,1018.55
2022-11-13T04:30:33.516Z,1018.56
2022-11-13T04:31:33.606Z,1018.49
2022-11-13T04:32:33.462Z,1018.49
2022-11-13T04:33:33.435Z,1018.53
2022-11-13T04:34:33.411Z,1018.45
2022-11-13T04:35:33.383Z,1018.49
2022-11-13T04:36:33.355Z,1018.48
2022-11-13T04:37:33.330Z,1018.44
2022-11-13T04:38:33.301Z,1018.45
2022-11-13T04:39:33.274Z,1018.46
2022-11-13T04:40:33.248Z,1018.42
2022-11-13T04:41:33.220Z,1018.40
2022-11-13T04:42:33.192Z,1018.45
2022-11-13T04:43:33.165Z,1018.43
2022-11-13T04:44:33.142Z,1018.44
2022-11-13T04:45:33.112Z,1018.45
2022-11-13T04:46:33.086Z,1018.42
2022-11-13T04:47:33.170Z,1018.39
2022-11-13T04:48:33.031Z,1018.36
2022-11-13T04:49:33.003Z,1018.34
2022-11-13T04:50:32.977Z,1018.36
2022-11-13T04:51:32.949Z,1018.35
2022-11-13T04:52:32.926Z,1018.33
2022-11-13T04:53:32.895Z,1018.34
2022-11-13T04:54:32.870Z,1018.34
2022-11-13T04:55:32.847Z,1018.36
2022-11-13T04:56:32.815Z,1018.33
2022-11-13T04:57:32.787Z,1018.32
2022-11-13T04:58:32.761Z,1018.30
2022-11-13T04:59:32.734Z,1018.33
2022-11-13T05:00:32.706Z,1018.34
2022-11-13T05:01:32.772Z,1018.33
2022-11-13T05:02:32.654Z,1018.28
2022-11-13T05:03:32.739Z,1018.25
2022-11-13T05:04:32.602Z,1018.26
2022-11-13T05:05:32.571Z,1018.28
2022-11-13T05:06:32.548Z,1018.20
2022-11-13T05:07:32.520Z,1018.24
2022-11-13T05:08:32.492Z,1018.22
2022-11-13T05:09:32.463Z,1018.21
2022-11-13T05:10:32.436Z,1018.22
2022-11-13T05:11:32.408Z,1018.21
2022-11-13T05:12:32.385Z,1018.15
2022-11-13T05:13:32.357Z,1018.14
2022-11-13T05:14:32.326Z,1018.16
2022-11-13T05:15:32.299Z,1018.12
2022-11-13T05:16:32.273Z,1018.15
2022-11-13T05:17:32.246Z,1018.13
2022-11-13T05:18:32.220Z,1018.14
2022-11-13T05:19:32.300Z,1018.13
2022-11-13T05:20:32.166Z,1018.13
2022-11-13T05:21:32.140Z,1018.13
2022-11-13T05:22:32.114Z,1018.17
2022-11-13T05:23:32.085Z,1018.16
2022-11-13T05:24:32.057Z,1018.12
2022-11-13T05:25:32.030Z,1018.10
2022-11-13T05:26:32.006Z,1018.09
2022-11-13T05:27:31.974Z,1018.07
2022-11-13T05:28:31.949Z,1018.06
2022-11-13T05:29:31.923Z,1018.03
2022-11-13T05:30:31.895Z,1018.06
2022-11-13T05:31:31.865Z,1018.03
2022-11-13T05:32:31.845Z,1018.07
2022-11-13T05:33:31.813Z,1018.04
2022-11-13T05:34:31.794Z,1018.06
2022-11-13T05:35:31.870Z,1018.05
2022-11-13T05:37:31.707Z,1018.01
2022-11-13T05:38:31.858Z,1017.99
2022-11-13T05:39:31.650Z,1017.98
2022-11-13T05:40:31.621Z,1017.98
2022-11-13T05:41:31.596Z,1017.99
2022-11-13T05:42:31.566Z,1018.00
2022-11-13T05:43:31.540Z,1017.98
2022-11-13T05:44:31.514Z,1017.96
2022-11-13T05:45:31.486Z,1017.93
2022-11-13T05:46:31.457Z,1017.92
2022-11-13T05:47:31.433Z,1017.91
2022-11-13T05:48:31.675Z,1017.90
2022-11-13T05:49:31.377Z,1017.94
2022-11-13T05:50:31.347Z,1017.92
2022-11-13T05:51:31.431Z,1017.95
2022-11-13T05:52:31.293Z,1017.88
2022-11-13T05:53:31.269Z,1017.93
2022-11-13T05:54:31.238Z,1017.93
2022-11-13T05:55:31.214Z,1017.91
2022-11-13T05:56:31.184Z,1017.92
2022-11-13T05:57:31.160Z,1017.90
2022-11-13T05:58:31.449Z,1017.92
2022-11-13T05:59:31.105Z,1017.88
2022-11-13T06:00:31.077Z,1017.84
2022-11-13T06:01:31.169Z,1017.83
2022-11-13T06:02:31.019Z,1017.85
2022-11-13T06:03:30.994Z,1017.82
2022-11-13T06:04:30.966Z,1017.86
2022-11-13T06:05:30.943Z,1017.84
2022-11-13T06:06:30.916Z,1017.81
2022-11-13T06:07:30.998Z,1017.80
2022-11-13T06:08:31.125Z,1017.78
2022-11-13T06:09:30.836Z,1017.76
2022-11-13T06:10:30.802Z,1017.76
2022-11-13T06:11:30.777Z,1017.73
2022-11-13T06:12:30.750Z,1017.69
2022-11-13T06:13:30.725Z,1017.72
2022-11-13T06:14:30.695Z,1017.69
2022-11-13T06:15:30.668Z,1017.69
2022-11-13T06:16:30.644Z,1017.69
2022-11-13T06:17:30.616Z,1017.66
2022-11-13T06:18:30.807Z,1017.71
2022-11-13T06:19:30.564Z,1017.64
2022-11-13T06:20:30.534Z,1017.67
2022-11-13T06:21:30.525Z,1017.64
2022-11-13T06:22:30.476Z,1017.64
2022-11-13T06:23:30.577Z,1017.63
2022-11-13T06:24:30.421Z,1017.61
2022-11-13T06:25:30.396Z,1017.65
2022-11-13T06:26:30.367Z,1017.69
2022-11-13T06:27:30.343Z,1017.67
2022-11-13T06:28:30.815Z,1017.62
2022-11-13T06:29:30.288Z,1017.65
2022-11-13T06:30:30.257Z,1017.60
2022-11-13T06:31:30.231Z,1017.69
2022-11-13T06:32:30.205Z,1017.68
2022-11-13T06:33:30.178Z,1017.67
2022-11-13T06:34:30.148Z,1017.65
2022-11-13T06:35:30.122Z,1017.64
2022-11-13T06:36:30.096Z,1017.59
2022-11-13T06:37:33.759Z,1017.63
2022-11-13T06:38:30.438Z,1017.56
2022-11-13T06:39:30.130Z,1017.58
2022-11-13T06:40:29.988Z,1017.57
2022-11-13T06:41:29.960Z,1017.59
2022-11-13T06:42:29.932Z,1017.58
2022-11-13T06:43:29.909Z,1017.60
2022-11-13T06:44:29.875Z,1017.60
2022-11-13T06:45:29.895Z,1017.59
2022-11-13T06:46:29.819Z,1017.57
2022-11-13T06:47:29.795Z,1017.55
2022-11-13T06:48:30.093Z,1017.51
2022-11-13T06:49:29.743Z,1017.56
2022-11-13T06:50:29.710Z,1017.55
2022-11-13T06:51:29.684Z,1017.51
2022-11-13T06:52:29.658Z,1017.53
2022-11-13T06:53:29.634Z,1017.50
2022-11-13T06:54:29.602Z,1017.52
2022-11-13T06:55:29.743Z,1017.55
2022-11-13T06:56:29.548Z,1017.54
2022-11-13T06:57:29.524Z,1017.54
2022-11-13T06:58:29.892Z,1017.54
2022-11-13T06:59:29.471Z,1017.51
2022-11-13T07:00:35.247Z,1017.53
2022-11-13T07:01:29.503Z,1017.54
2022-11-13T07:02:29.384Z,1017.54
2022-11-13T07:03:29.358Z,1017.51
2022-11-13T07:04:29.330Z,1017.51
2022-11-13T07:05:29.303Z,1017.49
2022-11-13T07:06:29.275Z,1017.48
2022-11-13T07:07:29.298Z,1017.45
2022-11-13T07:08:29.541Z,1017.42
2022-11-13T07:09:29.193Z,1017.50
2022-11-13T07:10:29.247Z,1017.47
2022-11-13T07:11:29.254Z,1017.43
2022-11-13T07:12:29.115Z,1017.48
2022-11-13T07:13:29.083Z,1017.44
2022-11-13T07:14:29.057Z,1017.41
2022-11-13T07:15:29.029Z,1017.42
2022-11-13T07:16:44.158Z,1017.40
2022-11-13T07:17:28.976Z,1017.37
2022-11-13T07:18:29.332Z,1017.41
2022-11-13T07:19:28.919Z,1017.38
2022-11-13T07:20:28.895Z,1017.40
2022-11-13T07:21:28.865Z,1017.36
2022-11-13T07:22:28.836Z,1017.39
2022-11-13T07:23:28.809Z,1017.38
2022-11-13T07:24:28.781Z,1017.38
2022-11-13T07:25:28.757Z,1017.36
2022-11-13T07:26:28.724Z,1017.37
2022-11-13T07:27:28.812Z,1017.37
2022-11-13T07:28:28.957Z,1017.41
2022-11-13T07:29:28.648Z,1017.35
2022-11-13T07:30:28.618Z,1017.34
2022-11-13T07:31:28.589Z,1017.34
2022-11-13T07:32:28.563Z,1017.32
2022-11-13T07:33:28.537Z,1017.32
2022-11-13T07:34:28.506Z,1017.35
2022-11-13T07:35:28.482Z,1017.34
2022-11-13T07:36:28.453Z,1017.32
2022-11-13T07:37:28.426Z,1017.34
2022-11-13T07:38:28.815Z,1017.32
2022-11-13T07:39:28.376Z,1017.32
2022-11-13T07:40:28.348Z,1017.29
2022-11-13T07:41:28.316Z,1017.30
2022-11-13T07:42:28.286Z,1017.25
2022-11-13T07:43:28.375Z,1017.27
2022-11-13T07:44:53.025Z,1017.26
2022-11-13T07:45:28.208Z,1017.25
2022-11-13T07:46:28.177Z,1017.26
2022-11-13T07:47:28.150Z,1017.29
2022-11-13T07:48:28.588Z,1017.28
2022-11-13T07:49:28.099Z,1017.29
2022-11-13T07:50:28.066Z,1017.27
2022-11-13T07:51:28.040Z,1017.28
2022-11-13T07:52:28.012Z,1017.23
2022-11-13T07:53:27.990Z,1017.24
2022-11-13T07:54:27.955Z,1017.25
2022-11-13T07:55:27.930Z,1017.20
2022-11-13T07:56:27.905Z,1017.20
2022-11-13T07:57:27.879Z,1017.23
2022-11-13T07:58:28.229Z,1017.27
2022-11-13T07:59:28.040Z,1017.27
2022-11-13T08:00:27.803Z,1017.23
2022-11-13T08:01:27.841Z,1017.22
2022-11-13T08:02:27.735Z,1017.24
2022-11-13T08:03:27.713Z,1017.26
2022-11-13T08:04:27.683Z,1017.26
2022-11-13T08:05:27.657Z,1017.20
2022-11-13T08:06:27.627Z,1017.20
2022-11-13T08:07:27.598Z,1017.14
2022-11-13T08:08:27.997Z,1017.18
2022-11-13T08:09:27.546Z,1017.14
2022-11-13T08:10:27.559Z,1017.17
2022-11-13T08:11:27.489Z,1017.15
2022-11-13T08:12:27.465Z,1017.16
2022-11-13T08:13:27.435Z,1017.19
2022-11-13T08:14:27.410Z,1017.17
2022-11-13T08:15:27.491Z,1017.11
2022-11-13T08:16:27.355Z,1017.15
2022-11-13T08:17:27.329Z,1017.17
2022-11-13T08:18:27.773Z,1017.16
2022-11-13T08:19:27.271Z,1017.19
2022-11-13T08:20:27.315Z,1017.12
2022-11-13T08:21:27.216Z,1017.18
2022-11-13T08:22:27.262Z,1017.16
2022-11-13T08:23:27.164Z,1017.18
2022-11-13T08:24:27.136Z,1017.15
2022-11-13T08:25:27.113Z,1017.13
2022-11-13T08:26:27.083Z,1017.13
2022-11-13T08:27:27.050Z,1017.10
2022-11-13T08:28:27.343Z,1017.03
2022-11-13T08:29:26.998Z,1017.04
2022-11-13T08:30:27.008Z,1017.03
2022-11-13T08:31:27.061Z,1017.05
2022-11-13T08:32:26.917Z,1017.04
2022-11-13T08:33:26.891Z,1017.08
2022-11-13T08:34:26.864Z,1017.05
2022-11-13T08:35:29.598Z,1017.04
2022-11-13T08:36:26.807Z,1017.02
2022-11-13T08:37:26.779Z,1017.06
2022-11-13T08:38:27.007Z,1017.04
2022-11-13T08:39:26.730Z,1017.04
2022-11-13T08:40:26.772Z,1016.98
2022-11-13T08:41:26.673Z,1016.99
2022-11-13T08:42:26.649Z,1016.99
2022-11-13T08:43:26.615Z,1017.00
2022-11-13T08:44:26.694Z,1016.98
2022-11-13T08:45:26.565Z,1017.00
2022-11-13T08:46:26.545Z,1017.01
2022-11-13T08:47:29.457Z,1017.00
2022-11-13T08:48:26.768Z,1016.98
2022-11-13T08:49:26.455Z,1016.97
2022-11-13T08:50:26.435Z,1016.95
2022-11-13T08:51:26.402Z,1016.97
2022-11-13T08:52:26.378Z,1017.00
2022-11-13T08:53:26.350Z,1017.01
2022-11-13T08:54:26.323Z,1017.02
2022-11-13T08:55:26.295Z,1017.04
2022-11-13T08:56:26.268Z,1017.02
2022-11-13T08:57:26.245Z,1017.04
2022-11-13T08:58:26.599Z,1016.99
2022-11-13T08:59:26.188Z,1016.99
2022-11-13T09:00:26.205Z,1016.98
2022-11-13T09:01:26.135Z,1016.93
2022-11-13T09:02:26.109Z,1016.95
2022-11-13T09:03:26.267Z,1016.95
2022-11-13T09:04:26.060Z,1016.99
2022-11-13T09:05:26.035Z,1017.01
2022-11-13T09:06:26.011Z,1016.99
2022-11-13T09:07:27.532Z,1016.99
2022-11-13T09:08:26.193Z,1016.99
2022-11-13T09:09:25.923Z,1017.06
2022-11-13T09:10:25.898Z,1017.03
2022-11-13T09:11:25.871Z,1017.01
2022-11-13T09:12:25.848Z,1016.99
2022-11-13T09:13:25.824Z,1017.03
2022-11-13T09:14:25.793Z,1016.98
2022-11-13T09:15:25.767Z,1017.03
2022-11-13T09:16:25.740Z,1017.00
2022-11-13T09:17:25.713Z,1017.07
2022-11-13T09:18:26.026Z,1017.04
2022-11-13T09:19:25.775Z,1016.99
2022-11-13T09:20:25.634Z,1017.00
2022-11-13T09:21:25.608Z,1017.02
2022-11-13T09:22:25.582Z,1016.98
2022-11-13T09:23:25.559Z,1016.97
2022-11-13T09:24:25.534Z,1016.95
2022-11-13T09:25:25.505Z,1016.97
2022-11-13T09:26:25.482Z,1016.94
2022-11-13T09:27:25.455Z,1016.95
2022-11-13T09:28:25.541Z,1016.96
2022-11-13T09:29:25.404Z,1016.91
2022-11-13T09:30:25.379Z,1016.90
2022-11-13T09:31:25.355Z,1016.95
2022-11-13T09:32:25.330Z,1016.92
2022-11-13T09:33:25.307Z,1016.91
2022-11-13T09:34:25.283Z,1016.94
2022-11-13T09:35:25.366Z,1016.91
2022-11-13T09:36:25.232Z,1016.88
2022-11-13T09:37:25.205Z,1016.91
2022-11-13T09:38:25.289Z,1016.88
2022-11-13T09:39:25.156Z,1016.89
2022-11-13T09:40:25.141Z,1016.91
2022-11-13T09:41:25.107Z,1016.94
2022-11-13T09:42:25.084Z,1016.91
2022-11-13T09:43:25.060Z,1016.94
2022-11-13T09:44:25.036Z,1016.97
2022-11-13T09:45:25.011Z,1016.97
2022-11-13T09:46:24.987Z,1016.97
2022-11-13T09:47:24.962Z,1016.95
2022-11-13T09:48:25.034Z,1016.96
2022-11-13T09:49:24.918Z,1016.92
2022-11-13T09:50:24.893Z,1016.95
2022-11-13T09:51:24.982Z,1016.96
2022-11-13T09:52:24.848Z,1016.89
2022-11-13T09:53:24.823Z,1016.92
2022-11-13T09:54:24.801Z,1016.89
2022-11-13T09:55:24.776Z,1016.91
2022-11-13T09:56:24.770Z,1016.91
2022-11-13T09:57:26.539Z,1016.88
2022-11-13T09:58:24.713Z,1016.82
2022-11-13T09:59:24.684Z,1016.80
2022-11-13T10:00:24.664Z,1016.77
2022-11-13T10:01:24.740Z,1016.80
2022-11-13T10:02:24.620Z,1016.79
2022-11-13T10:03:59.810Z,1016.77
2022-11-13T10:04:24.574Z,1016.74
2022-11-13T10:05:24.550Z,1016.74
2022-11-13T10:06:24.530Z,1016.76
2022-11-13T10:07:24.684Z,1016.75
2022-11-13T10:08:24.488Z,1016.74
2022-11-13T10:09:24.464Z,1016.71
2022-11-13T10:10:24.442Z,1016.71
2022-11-13T10:11:24.420Z,1016.72
2022-11-13T10:12:24.401Z,1016.71
2022-11-13T10:13:24.377Z,1016.71
2022-11-13T10:14:24.357Z,1016.69
2022-11-13T10:15:24.332Z,1016.66
2022-11-13T10:16:24.315Z,1016.66
2022-11-13T10:17:24.292Z,1016.64
2022-11-13T10:18:24.270Z,1016.66
2022-11-13T10:19:24.250Z,1016.66
2022-11-13T10:20:24.226Z,1016.63
2022-11-13T10:21:24.203Z,1016.62
2022-11-13T10:22:33.380Z,1016.66
2022-11-13T10:23:24.271Z,1016.63
2022-11-13T10:24:24.142Z,1016.59
2022-11-13T10:25:24.123Z,1016.58
2022-11-13T10:26:24.098Z,1016.60
2022-11-13T10:27:24.077Z,1016.59
2022-11-13T10:28:51.694Z,1016.59
2022-11-13T10:29:24.034Z,1016.54
2022-11-13T10:30:24.015Z,1016.54
2022-11-13T10:31:23.995Z,1016.50
2022-11-13T10:32:23.972Z,1016.53
2022-11-13T10:33:23.956Z,1016.52
2022-11-13T10:34:23.933Z,1016.52
2022-11-13T10:35:23.908Z,1016.54
2022-11-13T10:36:23.890Z,1016.46
2022-11-13T10:37:23.868Z,1016.47
2022-11-13T10:38:23.848Z,1016.52
2022-11-13T10:39:23.941Z,1016.49
2022-11-13T10:40:23.808Z,1016.53
2022-11-13T10:41:23.788Z,1016.51
2022-11-13T10:42:23.768Z,1016.46
2022-11-13T10:43:23.743Z,1016.44
2022-11-13T10:44:23.725Z,1016.37
2022-11-13T10:45:23.705Z,1016.44
2022-11-13T10:46:23.684Z,1016.41
2022-11-13T10:47:49.158Z,1016.43
2022-11-13T10:48:23.643Z,1016.43
2022-11-13T10:49:23.624Z,1016.40
2022-11-13T10:50:23.604Z,1016.43
2022-11-13T10:51:23.583Z,1016.41
2022-11-13T10:52:23.565Z,1016.40
2022-11-13T10:53:23.543Z,1016.38
2022-11-13T10:54:23.521Z,1016.36
2022-11-13T10:55:23.612Z,1016.30
2022-11-13T10:56:23.482Z,1016.22
2022-11-13T10:57:23.464Z,1016.16
2022-11-13T10:58:23.439Z,1016.12
2022-11-13T10:59:23.419Z,1016.10
2022-11-13T11:00:23.404Z,1016.07
2022-11-13T11:01:23.422Z,1016.07
2022-11-13T11:02:23.365Z,1016.04
2022-11-13T11:03:23.341Z,1016.03
2022-11-13T11:04:23.354Z,1016.03
2022-11-13T11:05:23.296Z,1015.99
2022-11-13T11:06:32.102Z,1015.94
2022-11-13T11:07:23.376Z,1015.91
2022-11-13T11:08:23.240Z,1015.90
2022-11-13T11:09:23.217Z,1015.86
2022-11-13T11:10:23.197Z,1015.83
2022-11-13T11:11:23.288Z,1015.77
2022-11-13T11:12:29.057Z,1015.79
2022-11-13T11:13:23.138Z,1015.74
2022-11-13T11:14:23.114Z,1015.70
2022-11-13T11:15:23.093Z,1015.70
2022-11-13T11:16:23.072Z,1015.66
2022-11-13T11:17:23.052Z,1015.68
2022-11-13T11:18:23.033Z,1015.65
2022-11-13T11:19:23.008Z,1015.64
2022-11-13T11:20:22.991Z,1015.60
2022-11-13T11:21:22.965Z,1015.62
2022-11-13T11:22:22.956Z,1015.63
2022-11-13T11:23:22.929Z,1015.60
2022-11-13T11:24:22.911Z,1015.60
2022-11-13T11:25:22.885Z,1015.59
2022-11-13T11:26:22.869Z,1015.60
2022-11-13T11:27:22.959Z,1015.56
2022-11-13T11:28:22.819Z,1015.56
2022-11-13T11:29:22.800Z,1015.54
2022-11-13T11:30:22.787Z,1015.54
2022-11-13T11:31:22.872Z,1015.54
2022-11-13T11:32:22.738Z,1015.52
2022-11-13T11:33:22.714Z,1015.51
2022-11-13T11:34:22.750Z,1015.51
2022-11-13T11:35:22.672Z,1015.50
2022-11-13T11:36:22.652Z,1015.50
2022-11-13T11:37:22.648Z,1015.46
2022-11-13T11:38:22.632Z,1015.49
2022-11-13T11:39:22.647Z,1015.44
2022-11-13T11:40:22.574Z,1015.47
2022-11-13T11:41:22.593Z,1015.44
2022-11-13T11:42:22.543Z,1015.40
2022-11-13T11:43:22.616Z,1015.42
2022-11-13T11:44:22.564Z,1015.38
2022-11-13T11:45:22.459Z,1015.38
2022-11-13T11:46:22.433Z,1015.42
2022-11-13T11:47:22.415Z,1015.37
2022-11-13T11:48:22.393Z,1015.47
2022-11-13T11:49:22.373Z,1015.38
2022-11-13T11:50:22.347Z,1015.40
2022-11-13T11:51:22.325Z,1015.37
2022-11-13T11:52:22.304Z,1015.35
2022-11-13T11:53:22.283Z,1015.36
2022-11-13T11:54:22.261Z,1015.35
2022-11-13T11:55:22.239Z,1015.35
2022-11-13T11:56:22.218Z,1015.29
2022-11-13T11:57:22.195Z,1015.30
2022-11-13T11:58:22.178Z,1015.29
2022-11-13T11:59:22.366Z,1015.27
2022-11-13T12:00:22.133Z,1015.22
2022-11-13T12:01:22.106Z,1015.26
2022-11-13T12:02:22.090Z,1015.26
2022-11-13T12:03:22.062Z,1015.23
2022-11-13T12:04:22.043Z,1015.24
2022-11-13T12:05:22.144Z,1015.19
2022-11-13T12:06:22.001Z,1015.19
2022-11-13T12:07:22.093Z,1015.18